sensor_id;sensor_type;location;lat;lon;timestamp;temperature;humidity
20319;DHT22;10317;47.254;11.314;2022-08-21T00:00:26;16.80;99.90
20319;DHT22;10317;47.254;11.314;2022-08-21T00:02:59;16.90;99.90
20319;DHT22;10317;47.254;11.314;2022-08-21T00:05:27;16.80;99.90
20319;DHT22;10317;47.254;11.314;2022-08-21T00:07:54;16.80;99.90
20319;DHT22;10317;47.254;11.314;2022-08-21T00:10:20;16.80;99.90
20319;DHT22;10317;47.254;11.314;2022-08-21T00:12:47;16.80;99.90
20319;DHT22;10317;47.254;11.314;2022-08-21T00:15:19;16.80;99.90
20319;DHT22;10317;47.254;11.314;2022-08-21T00:17:45;16.80;99.90
20319;DHT22;10317;47.254;11.314;2022-08-21T00:20:13;16.80;99.90
20319;DHT22;10317;47.254;11.314;2022-08-21T00:22:39;16.80;99.90
20319;DHT22;10317;47.254;11.314;2022-08-21T00:25:06;16.90;99.90
20319;DHT22;10317;47.254;11.314;2022-08-21T00:27:33;16.80;99.90
20319;DHT22;10317;47.254;11.314;2022-08-21T00:29:59;16.80;99.90
20319;DHT22;10317;47.254;11.314;2022-08-21T00:32:27;16.80;99.90
20319;DHT22;10317;47.254;11.314;2022-08-21T00:34:53;16.80;99.90
20319;DHT22;10317;47.254;11.314;2022-08-21T00:37:19;16.80;99.90
20319;DHT22;10317;47.254;11.314;2022-08-21T00:39:45;16.80;99.90
20319;DHT22;10317;47.254;11.314;2022-08-21T00:42:13;16.80;99.90
20319;DHT22;10317;47.254;11.314;2022-08-21T00:44:47;16.80;99.90
20319;DHT22;10317;47.254;11.314;2022-08-21T00:47:13;16.70;99.90
20319;DHT22;10317;47.254;11.314;2022-08-21T00:49:39;16.70;99.90
20319;DHT22;10317;47.254;11.314;2022-08-21T00:52:10;16.70;99.90
20319;DHT22;10317;47.254;11.314;2022-08-21T00:54:36;16.70;99.90
20319;DHT22;10317;47.254;11.314;2022-08-21T00:57:09;16.70;99.90
20319;DHT22;10317;47.254;11.314;2022-08-21T00:59:37;16.70;99.90
20319;DHT22;10317;47.254;11.314;2022-08-21T01:02:05;16.70;99.90
20319;DHT22;10317;47.254;11.314;2022-08-21T01:04:33;16.70;99.90
20319;DHT22;10317;47.254;11.314;2022-08-21T01:06:59;16.70;99.90
20319;DHT22;10317;47.254;11.314;2022-08-21T01:09:26;16.70;99.90
20319;DHT22;10317;47.254;11.314;2022-08-21T01:11:51;16.70;99.90
20319;DHT22;10317;47.254;11.314;2022-08-21T01:14:17;16.80;99.90
20319;DHT22;10317;47.254;11.314;2022-08-21T01:16:49;16.80;99.90
20319;DHT22;10317;47.254;11.314;2022-08-21T01:19:17;16.80;99.90
20319;DHT22;10317;47.254;11.314;2022-08-21T01:21:43;16.70;99.90
20319;DHT22;10317;47.254;11.314;2022-08-21T01:24:09;16.70;99.90
20319;DHT22;10317;47.254;11.314;2022-08-21T01:26:36;16.70;99.90
20319;DHT22;10317;47.254;11.314;2022-08-21T01:29:09;16.60;99.90
20319;DHT22;10317;47.254;11.314;2022-08-21T01:31:36;16.60;99.90
20319;DHT22;10317;47.254;11.314;2022-08-21T01:34:03;16.50;99.90
20319;DHT22;10317;47.254;11.314;2022-08-21T01:36:29;16.50;99.90
20319;DHT22;10317;47.254;11.314;2022-08-21T01:38:55;16.40;99.90
20319;DHT22;10317;47.254;11.314;2022-08-21T01:41:21;16.40;99.90
20319;DHT22;10317;47.254;11.314;2022-08-21T01:43:47;16.40;99.90
20319;DHT22;10317;47.254;11.314;2022-08-21T01:46:13;16.30;99.90
20319;DHT22;10317;47.254;11.314;2022-08-21T01:48:39;16.40;99.90
20319;DHT22;10317;47.254;11.314;2022-08-21T01:51:06;16.40;99.90
20319;DHT22;10317;47.254;11.314;2022-08-21T01:53:33;16.40;99.90
20319;DHT22;10317;47.254;11.314;2022-08-21T01:56:01;16.40;99.90
20319;DHT22;10317;47.254;11.314;2022-08-21T01:58:27;16.40;99.90
20319;DHT22;10317;47.254;11.314;2022-08-21T02:00:53;16.40;99.90
20319;DHT22;10317;47.254;11.314;2022-08-21T02:03:19;16.40;99.90
20319;DHT22;10317;47.254;11.314;2022-08-21T02:05:45;16.40;99.90
20319;DHT22;10317;47.254;11.314;2022-08-21T02:08:10;16.40;99.90
20319;DHT22;10317;47.254;11.314;2022-08-21T02:10:36;16.30;99.90
20319;DHT22;10317;47.254;11.314;2022-08-21T02:13:03;16.40;99.90
20319;DHT22;10317;47.254;11.314;2022-08-21T02:15:29;16.40;99.90
20319;DHT22;10317;47.254;11.314;2022-08-21T02:17:59;16.30;99.90
20319;DHT22;10317;47.254;11.314;2022-08-21T02:22:51;16.20;99.90
20319;DHT22;10317;47.254;11.314;2022-08-21T02:25:18;16.20;99.90
20319;DHT22;10317;47.254;11.314;2022-08-21T02:27:45;16.20;99.90
20319;DHT22;10317;47.254;11.314;2022-08-21T02:30:19;16.20;99.90
20319;DHT22;10317;47.254;11.314;2022-08-21T02:32:45;16.20;99.90
20319;DHT22;10317;47.254;11.314;2022-08-21T02:35:12;16.20;99.90
20319;DHT22;10317;47.254;11.314;2022-08-21T02:37:46;16.20;99.90
20319;DHT22;10317;47.254;11.314;2022-08-21T02:40:13;16.20;99.90
20319;DHT22;10317;47.254;11.314;2022-08-21T02:42:39;16.30;99.90
20319;DHT22;10317;47.254;11.314;2022-08-21T02:45:06;16.30;99.90
20319;DHT22;10317;47.254;11.314;2022-08-21T02:47:31;16.20;99.90
20319;DHT22;10317;47.254;11.314;2022-08-21T02:49:57;16.00;99.90
20319;DHT22;10317;47.254;11.314;2022-08-21T02:52:23;16.00;99.90
20319;DHT22;10317;47.254;11.314;2022-08-21T02:54:49;16.00;99.90
20319;DHT22;10317;47.254;11.314;2022-08-21T02:57:15;15.90;99.90
20319;DHT22;10317;47.254;11.314;2022-08-21T02:59:41;15.90;99.90
20319;DHT22;10317;47.254;11.314;2022-08-21T03:02:07;15.90;99.90
20319;DHT22;10317;47.254;11.314;2022-08-21T03:04:32;15.80;99.90
20319;DHT22;10317;47.254;11.314;2022-08-21T03:06:58;15.80;99.90
20319;DHT22;10317;47.254;11.314;2022-08-21T03:09:24;15.80;99.90
20319;DHT22;10317;47.254;11.314;2022-08-21T03:11:50;15.80;99.90
20319;DHT22;10317;47.254;11.314;2022-08-21T03:14:17;15.80;99.90
20319;DHT22;10317;47.254;11.314;2022-08-21T03:16:44;15.80;99.90
20319;DHT22;10317;47.254;11.314;2022-08-21T03:19:10;15.80;99.90
20319;DHT22;10317;47.254;11.314;2022-08-21T03:21:35;15.80;99.90
20319;DHT22;10317;47.254;11.314;2022-08-21T03:24:01;15.80;99.90
20319;DHT22;10317;47.254;11.314;2022-08-21T03:26:27;15.80;99.90
20319;DHT22;10317;47.254;11.314;2022-08-21T03:28:53;15.70;99.90
20319;DHT22;10317;47.254;11.314;2022-08-21T03:31:19;15.70;99.90
20319;DHT22;10317;47.254;11.314;2022-08-21T03:33:46;15.70;99.90
20319;DHT22;10317;47.254;11.314;2022-08-21T03:36:12;15.70;99.90
20319;DHT22;10317;47.254;11.314;2022-08-21T03:38:39;15.70;99.90
20319;DHT22;10317;47.254;11.314;2022-08-21T03:41:05;15.70;99.90
20319;DHT22;10317;47.254;11.314;2022-08-21T03:43:32;15.60;99.90
20319;DHT22;10317;47.254;11.314;2022-08-21T03:46:02;15.60;99.90
20319;DHT22;10317;47.254;11.314;2022-08-21T03:48:29;15.50;99.90
20319;DHT22;10317;47.254;11.314;2022-08-21T03:50:55;15.50;99.90
20319;DHT22;10317;47.254;11.314;2022-08-21T03:53:22;15.50;99.90
20319;DHT22;10317;47.254;11.314;2022-08-21T03:55:49;15.50;99.90
20319;DHT22;10317;47.254;11.314;2022-08-21T03:58:18;15.40;99.90
20319;DHT22;10317;47.254;11.314;2022-08-21T04:00:46;15.40;99.90
20319;DHT22;10317;47.254;11.314;2022-08-21T04:03:12;15.40;99.90
20319;DHT22;10317;47.254;11.314;2022-08-21T04:05:38;15.40;99.90
20319;DHT22;10317;47.254;11.314;2022-08-21T04:08:05;15.30;99.90
20319;DHT22;10317;47.254;11.314;2022-08-21T04:10:34;15.30;99.90
20319;DHT22;10317;47.254;11.314;2022-08-21T04:13:00;15.30;99.90
20319;DHT22;10317;47.254;11.314;2022-08-21T04:15:27;15.30;99.90
20319;DHT22;10317;47.254;11.314;2022-08-21T04:17:53;15.30;99.90
20319;DHT22;10317;47.254;11.314;2022-08-21T04:20:19;15.30;99.90
20319;DHT22;10317;47.254;11.314;2022-08-21T04:22:47;15.30;99.90
20319;DHT22;10317;47.254;11.314;2022-08-21T04:25:14;15.30;99.90
20319;DHT22;10317;47.254;11.314;2022-08-21T04:27:40;15.30;99.90
20319;DHT22;10317;47.254;11.314;2022-08-21T04:30:07;15.30;99.90
20319;DHT22;10317;47.254;11.314;2022-08-21T04:32:37;15.30;99.90
20319;DHT22;10317;47.254;11.314;2022-08-21T04:35:08;15.30;99.90
20319;DHT22;10317;47.254;11.314;2022-08-21T04:37:35;15.30;99.90
20319;DHT22;10317;47.254;11.314;2022-08-21T04:40:01;15.30;99.90
20319;DHT22;10317;47.254;11.314;2022-08-21T04:42:27;15.40;99.90
20319;DHT22;10317;47.254;11.314;2022-08-21T04:44:54;15.40;99.90
20319;DHT22;10317;47.254;11.314;2022-08-21T04:47:20;15.40;99.90
20319;DHT22;10317;47.254;11.314;2022-08-21T04:49:47;15.40;99.90
20319;DHT22;10317;47.254;11.314;2022-08-21T04:52:15;15.40;99.90
20319;DHT22;10317;47.254;11.314;2022-08-21T04:54:43;15.30;99.90
20319;DHT22;10317;47.254;11.314;2022-08-21T04:57:10;15.40;99.90
20319;DHT22;10317;47.254;11.314;2022-08-21T04:59:39;15.30;99.90
20319;DHT22;10317;47.254;11.314;2022-08-21T05:02:07;15.30;99.90
20319;DHT22;10317;47.254;11.314;2022-08-21T05:04:37;15.30;99.90
20319;DHT22;10317;47.254;11.314;2022-08-21T05:07:07;15.40;99.90
20319;DHT22;10317;47.254;11.314;2022-08-21T05:09:37;15.40;99.90
20319;DHT22;10317;47.254;11.314;2022-08-21T05:12:03;15.40;99.90
20319;DHT22;10317;47.254;11.314;2022-08-21T05:14:29;15.40;99.90
20319;DHT22;10317;47.254;11.314;2022-08-21T05:16:55;15.40;99.90
20319;DHT22;10317;47.254;11.314;2022-08-21T05:19:21;15.40;99.90
20319;DHT22;10317;47.254;11.314;2022-08-21T05:21:47;15.40;99.90
20319;DHT22;10317;47.254;11.314;2022-08-21T05:24:14;15.40;99.90
20319;DHT22;10317;47.254;11.314;2022-08-21T05:26:40;15.40;99.90
20319;DHT22;10317;47.254;11.314;2022-08-21T05:29:06;15.40;99.90
20319;DHT22;10317;47.254;11.314;2022-08-21T05:31:32;15.40;99.90
20319;DHT22;10317;47.254;11.314;2022-08-21T05:33:57;15.40;99.90
20319;DHT22;10317;47.254;11.314;2022-08-21T05:36:23;15.40;99.90
20319;DHT22;10317;47.254;11.314;2022-08-21T05:38:49;15.40;99.90
20319;DHT22;10317;47.254;11.314;2022-08-21T05:41:15;15.40;99.90
20319;DHT22;10317;47.254;11.314;2022-08-21T05:43:41;15.40;99.90
20319;DHT22;10317;47.254;11.314;2022-08-21T05:46:07;15.40;99.90
20319;DHT22;10317;47.254;11.314;2022-08-21T05:48:34;15.40;99.90
20319;DHT22;10317;47.254;11.314;2022-08-21T05:51:13;15.30;99.90
20319;DHT22;10317;47.254;11.314;2022-08-21T05:53:39;15.30;99.90
20319;DHT22;10317;47.254;11.314;2022-08-21T05:56:08;15.40;99.90
20319;DHT22;10317;47.254;11.314;2022-08-21T05:58:34;15.40;99.90
20319;DHT22;10317;47.254;11.314;2022-08-21T06:01:01;15.40;99.90
20319;DHT22;10317;47.254;11.314;2022-08-21T06:03:33;15.40;99.90
20319;DHT22;10317;47.254;11.314;2022-08-21T06:06:00;15.40;99.90
20319;DHT22;10317;47.254;11.314;2022-08-21T06:08:26;15.40;99.90
20319;DHT22;10317;47.254;11.314;2022-08-21T06:10:53;15.40;99.90
20319;DHT22;10317;47.254;11.314;2022-08-21T06:13:20;15.50;99.90
20319;DHT22;10317;47.254;11.314;2022-08-21T06:15:46;15.50;99.90
20319;DHT22;10317;47.254;11.314;2022-08-21T06:18:12;15.60;99.90
20319;DHT22;10317;47.254;11.314;2022-08-21T06:20:38;15.70;99.90
20319;DHT22;10317;47.254;11.314;2022-08-21T06:23:04;15.70;99.90
20319;DHT22;10317;47.254;11.314;2022-08-21T06:25:30;15.80;99.90
20319;DHT22;10317;47.254;11.314;2022-08-21T06:30:28;15.80;99.90
20319;DHT22;10317;47.254;11.314;2022-08-21T06:32:54;15.90;99.90
20319;DHT22;10317;47.254;11.314;2022-08-21T06:35:19;15.90;99.90
20319;DHT22;10317;47.254;11.314;2022-08-21T06:37:45;16.00;99.90
20319;DHT22;10317;47.254;11.314;2022-08-21T06:40:11;16.10;99.90
20319;DHT22;10317;47.254;11.314;2022-08-21T06:42:37;16.30;99.90
20319;DHT22;10317;47.254;11.314;2022-08-21T06:45:04;16.60;99.90
20319;DHT22;10317;47.254;11.314;2022-08-21T06:47:29;16.80;99.90
20319;DHT22;10317;47.254;11.314;2022-08-21T06:49:55;17.10;99.90
20319;DHT22;10317;47.254;11.314;2022-08-21T06:52:21;17.30;99.90
20319;DHT22;10317;47.254;11.314;2022-08-21T06:54:46;17.60;99.90
20319;DHT22;10317;47.254;11.314;2022-08-21T06:57:12;17.80;99.90
20319;DHT22;10317;47.254;11.314;2022-08-21T06:59:38;18.10;99.90
20319;DHT22;10317;47.254;11.314;2022-08-21T07:02:04;18.20;99.90
20319;DHT22;10317;47.254;11.314;2022-08-21T07:04:30;18.20;99.90
20319;DHT22;10317;47.254;11.314;2022-08-21T07:06:56;18.30;99.90
20319;DHT22;10317;47.254;11.314;2022-08-21T07:09:21;18.30;99.90
20319;DHT22;10317;47.254;11.314;2022-08-21T07:11:50;18.20;99.90
20319;DHT22;10317;47.254;11.314;2022-08-21T07:14:17;18.10;99.90
20319;DHT22;10317;47.254;11.314;2022-08-21T07:16:43;18.00;99.90
20319;DHT22;10317;47.254;11.314;2022-08-21T07:19:09;17.90;99.90
20319;DHT22;10317;47.254;11.314;2022-08-21T07:21:34;18.00;99.90
20319;DHT22;10317;47.254;11.314;2022-08-21T07:24:00;18.00;99.90
20319;DHT22;10317;47.254;11.314;2022-08-21T07:26:26;18.10;99.90
20319;DHT22;10317;47.254;11.314;2022-08-21T07:28:52;18.30;99.90
20319;DHT22;10317;47.254;11.314;2022-08-21T07:31:20;18.80;99.90
20319;DHT22;10317;47.254;11.314;2022-08-21T07:33:46;19.40;99.90
20319;DHT22;10317;47.254;11.314;2022-08-21T07:36:13;19.90;99.90
20319;DHT22;10317;47.254;11.314;2022-08-21T07:38:39;20.60;99.70
20319;DHT22;10317;47.254;11.314;2022-08-21T07:41:13;21.30;98.80
20319;DHT22;10317;47.254;11.314;2022-08-21T07:43:39;22.00;96.80
20319;DHT22;10317;47.254;11.314;2022-08-21T07:46:05;22.70;95.20
20319;DHT22;10317;47.254;11.314;2022-08-21T07:48:31;23.60;92.50
20319;DHT22;10317;47.254;11.314;2022-08-21T07:50:58;24.40;90.20
20319;DHT22;10317;47.254;11.314;2022-08-21T07:53:24;24.80;89.70
20319;DHT22;10317;47.254;11.314;2022-08-21T07:55:49;25.30;88.00
20319;DHT22;10317;47.254;11.314;2022-08-21T07:58:15;25.70;82.40
20319;DHT22;10317;47.254;11.314;2022-08-21T08:00:41;25.50;84.50
20319;DHT22;10317;47.254;11.314;2022-08-21T08:03:07;26.10;83.60
20319;DHT22;10317;47.254;11.314;2022-08-21T08:05:33;26.40;77.70
20319;DHT22;10317;47.254;11.314;2022-08-21T08:08:02;26.10;80.40
20319;DHT22;10317;47.254;11.314;2022-08-21T08:10:28;26.80;78.90
20319;DHT22;10317;47.254;11.314;2022-08-21T08:12:54;26.90;77.60
20319;DHT22;10317;47.254;11.314;2022-08-21T08:15:23;26.60;72.40
20319;DHT22;10317;47.254;11.314;2022-08-21T08:17:49;26.90;72.90
20319;DHT22;10317;47.254;11.314;2022-08-21T08:20:17;27.00;77.90
20319;DHT22;10317;47.254;11.314;2022-08-21T08:22:43;27.10;78.00
20319;DHT22;10317;47.254;11.314;2022-08-21T08:25:12;27.20;75.10
20319;DHT22;10317;47.254;11.314;2022-08-21T08:27:38;27.20;71.90
20319;DHT22;10317;47.254;11.314;2022-08-21T08:30:06;27.00;69.30
20319;DHT22;10317;47.254;11.314;2022-08-21T08:32:32;26.70;71.70
20319;DHT22;10317;47.254;11.314;2022-08-21T08:34:59;26.80;71.00
20319;DHT22;10317;47.254;11.314;2022-08-21T08:37:24;27.10;72.20
20319;DHT22;10317;47.254;11.314;2022-08-21T08:39:50;26.80;70.50
20319;DHT22;10317;47.254;11.314;2022-08-21T08:42:27;26.80;68.20
20319;DHT22;10317;47.254;11.314;2022-08-21T08:45:04;26.60;68.90
20319;DHT22;10317;47.254;11.314;2022-08-21T08:47:31;26.60;71.50
20319;DHT22;10317;47.254;11.314;2022-08-21T08:52:48;26.50;71.20
20319;DHT22;10317;47.254;11.314;2022-08-21T08:55:32;26.50;68.10
20319;DHT22;10317;47.254;11.314;2022-08-21T08:57:58;26.60;67.70
20319;DHT22;10317;47.254;11.314;2022-08-21T09:00:24;26.30;70.50
20319;DHT22;10317;47.254;11.314;2022-08-21T09:02:55;26.40;71.00
20319;DHT22;10317;47.254;11.314;2022-08-21T09:05:43;26.60;75.40
20319;DHT22;10317;47.254;11.314;2022-08-21T09:08:15;26.90;76.30
20319;DHT22;10317;47.254;11.314;2022-08-21T09:10:49;26.90;73.60
20319;DHT22;10317;47.254;11.314;2022-08-21T09:13:43;27.00;72.90
20319;DHT22;10317;47.254;11.314;2022-08-21T09:27:08;26.60;71.90
20319;DHT22;10317;47.254;11.314;2022-08-21T09:29:46;25.40;69.20
20319;DHT22;10317;47.254;11.314;2022-08-21T09:32:25;25.90;78.20
20319;DHT22;10317;47.254;11.314;2022-08-21T09:37:34;25.90;73.10
20319;DHT22;10317;47.254;11.314;2022-08-21T09:40:02;26.10;74.10
20319;DHT22;10317;47.254;11.314;2022-08-21T09:42:30;25.60;75.50
20319;DHT22;10317;47.254;11.314;2022-08-21T09:45:15;25.80;74.30
20319;DHT22;10317;47.254;11.314;2022-08-21T09:47:41;26.10;77.50
20319;DHT22;10317;47.254;11.314;2022-08-21T09:50:18;26.20;73.00
20319;DHT22;10317;47.254;11.314;2022-08-21T09:52:52;25.90;76.70
20319;DHT22;10317;47.254;11.314;2022-08-21T09:55:23;25.90;71.20
20319;DHT22;10317;47.254;11.314;2022-08-21T09:58:07;25.80;71.60
20319;DHT22;10317;47.254;11.314;2022-08-21T10:00:35;26.00;74.00
20319;DHT22;10317;47.254;11.314;2022-08-21T10:03:19;26.00;71.10
20319;DHT22;10317;47.254;11.314;2022-08-21T10:05:58;26.00;74.60
20319;DHT22;10317;47.254;11.314;2022-08-21T10:08:26;26.00;69.80
20319;DHT22;10317;47.254;11.314;2022-08-21T10:11:05;26.30;66.70
20319;DHT22;10317;47.254;11.314;2022-08-21T10:13:55;26.50;66.20
20319;DHT22;10317;47.254;11.314;2022-08-21T10:16:29;26.30;66.50
20319;DHT22;10317;47.254;11.314;2022-08-21T10:19:26;26.20;66.40
20319;DHT22;10317;47.254;11.314;2022-08-21T10:25:19;26.10;66.40
20319;DHT22;10317;47.254;11.314;2022-08-21T10:30:36;26.00;66.10
20319;DHT22;10317;47.254;11.314;2022-08-21T10:38:58;25.70;69.30
20319;DHT22;10317;47.254;11.314;2022-08-21T10:44:35;25.90;65.40
20319;DHT22;10317;47.254;11.314;2022-08-21T10:47:05;25.70;65.90
20319;DHT22;10317;47.254;11.314;2022-08-21T10:54:55;25.90;64.90
20319;DHT22;10317;47.254;11.314;2022-08-21T10:57:44;26.40;70.30
20319;DHT22;10317;47.254;11.314;2022-08-21T11:00:21;26.10;64.20
20319;DHT22;10317;47.254;11.314;2022-08-21T11:02:55;25.80;66.30
20319;DHT22;10317;47.254;11.314;2022-08-21T11:05:38;26.10;67.80
20319;DHT22;10317;47.254;11.314;2022-08-21T11:08:32;25.80;66.90
20319;DHT22;10317;47.254;11.314;2022-08-21T11:11:07;25.50;69.60
20319;DHT22;10317;47.254;11.314;2022-08-21T11:13:47;25.60;69.00
20319;DHT22;10317;47.254;11.314;2022-08-21T11:16:42;25.80;64.80
20319;DHT22;10317;47.254;11.314;2022-08-21T11:25:03;26.20;59.70
20319;DHT22;10317;47.254;11.314;2022-08-21T11:30:10;26.40;58.50
20319;DHT22;10317;47.254;11.314;2022-08-21T11:41:15;25.50;66.10
20319;DHT22;10317;47.254;11.314;2022-08-21T11:43:45;25.50;63.60
20319;DHT22;10317;47.254;11.314;2022-08-21T11:55:03;26.30;59.70
20319;DHT22;10317;47.254;11.314;2022-08-21T11:57:18;26.40;60.80
20319;DHT22;10317;47.254;11.314;2022-08-21T11:59:51;26.40;58.90
20319;DHT22;10317;47.254;11.314;2022-08-21T12:02:23;26.60;58.50
20319;DHT22;10317;47.254;11.314;2022-08-21T12:04:56;26.60;57.30
20319;DHT22;10317;47.254;11.314;2022-08-21T12:07:39;26.80;57.10
20319;DHT22;10317;47.254;11.314;2022-08-21T12:10:12;27.00;55.90
20319;DHT22;10317;47.254;11.314;2022-08-21T12:12:40;27.10;56.50
20319;DHT22;10317;47.254;11.314;2022-08-21T12:18:04;27.10;54.10
20319;DHT22;10317;47.254;11.314;2022-08-21T12:20:56;26.80;57.60
20319;DHT22;10317;47.254;11.314;2022-08-21T12:23:42;27.00;58.30
20319;DHT22;10317;47.254;11.314;2022-08-21T12:26:26;27.20;56.60
20319;DHT22;10317;47.254;11.314;2022-08-21T12:29:13;27.10;58.80
20319;DHT22;10317;47.254;11.314;2022-08-21T12:34:26;27.10;58.00
20319;DHT22;10317;47.254;11.314;2022-08-21T12:37:04;27.10;57.00
20319;DHT22;10317;47.254;11.314;2022-08-21T12:39:32;27.20;55.00
20319;DHT22;10317;47.254;11.314;2022-08-21T12:42:21;27.20;53.60
20319;DHT22;10317;47.254;11.314;2022-08-21T12:44:55;27.30;56.20
20319;DHT22;10317;47.254;11.314;2022-08-21T12:47:34;27.20;50.80
20319;DHT22;10317;47.254;11.314;2022-08-21T12:52:36;27.30;52.90
20319;DHT22;10317;47.254;11.314;2022-08-21T12:55:06;27.20;51.80
20319;DHT22;10317;47.254;11.314;2022-08-21T12:57:35;27.20;53.50
20319;DHT22;10317;47.254;11.314;2022-08-21T13:00:05;27.30;51.00
20319;DHT22;10317;47.254;11.314;2022-08-21T13:02:37;27.10;51.70
20319;DHT22;10317;47.254;11.314;2022-08-21T13:05:07;27.20;50.00
20319;DHT22;10317;47.254;11.314;2022-08-21T13:07:35;27.20;51.30
20319;DHT22;10317;47.254;11.314;2022-08-21T13:10:14;27.40;51.10
20319;DHT22;10317;47.254;11.314;2022-08-21T13:12:42;27.40;50.40
20319;DHT22;10317;47.254;11.314;2022-08-21T13:15:08;27.50;52.00
20319;DHT22;10317;47.254;11.314;2022-08-21T13:17:36;27.50;52.90
20319;DHT22;10317;47.254;11.314;2022-08-21T13:20:10;27.40;51.80
20319;DHT22;10317;47.254;11.314;2022-08-21T13:22:44;27.50;51.60
20319;DHT22;10317;47.254;11.314;2022-08-21T13:25:12;27.70;49.10
20319;DHT22;10317;47.254;11.314;2022-08-21T13:27:39;27.60;51.10
20319;DHT22;10317;47.254;11.314;2022-08-21T13:30:14;27.70;51.30
20319;DHT22;10317;47.254;11.314;2022-08-21T13:32:45;27.60;50.30
20319;DHT22;10317;47.254;11.314;2022-08-21T13:35:17;27.50;50.10
20319;DHT22;10317;47.254;11.314;2022-08-21T13:37:45;27.50;51.30
20319;DHT22;10317;47.254;11.314;2022-08-21T13:40:15;27.20;48.20
20319;DHT22;10317;47.254;11.314;2022-08-21T13:42:43;27.40;48.00
20319;DHT22;10317;47.254;11.314;2022-08-21T13:45:21;27.50;46.80
20319;DHT22;10317;47.254;11.314;2022-08-21T13:47:47;27.50;51.50
20319;DHT22;10317;47.254;11.314;2022-08-21T13:50:15;27.40;50.80
20319;DHT22;10317;47.254;11.314;2022-08-21T13:55:49;27.70;48.50
20319;DHT22;10317;47.254;11.314;2022-08-21T13:58:31;27.40;46.10
20319;DHT22;10317;47.254;11.314;2022-08-21T14:00:59;27.20;48.00
20319;DHT22;10317;47.254;11.314;2022-08-21T14:03:44;27.40;53.30
20319;DHT22;10317;47.254;11.314;2022-08-21T14:06:20;27.40;48.60
20319;DHT22;10317;47.254;11.314;2022-08-21T14:08:53;27.50;47.50
20319;DHT22;10317;47.254;11.314;2022-08-21T14:11:20;27.40;48.00
20319;DHT22;10317;47.254;11.314;2022-08-21T14:13:51;27.40;51.20
20319;DHT22;10317;47.254;11.314;2022-08-21T14:16:43;27.30;49.90
20319;DHT22;10317;47.254;11.314;2022-08-21T14:19:36;27.40;50.50
20319;DHT22;10317;47.254;11.314;2022-08-21T14:21:56;27.40;48.40
20319;DHT22;10317;47.254;11.314;2022-08-21T14:29:24;27.40;49.10
20319;DHT22;10317;47.254;11.314;2022-08-21T14:31:57;27.10;48.60
20319;DHT22;10317;47.254;11.314;2022-08-21T14:34:28;27.20;50.00
20319;DHT22;10317;47.254;11.314;2022-08-21T14:36:55;27.30;51.30
20319;DHT22;10317;47.254;11.314;2022-08-21T14:39:21;27.30;50.80
20319;DHT22;10317;47.254;11.314;2022-08-21T14:41:48;27.20;50.90
20319;DHT22;10317;47.254;11.314;2022-08-21T14:44:17;27.10;49.60
20319;DHT22;10317;47.254;11.314;2022-08-21T14:46:44;27.00;48.80
20319;DHT22;10317;47.254;11.314;2022-08-21T14:49:10;27.00;50.00
20319;DHT22;10317;47.254;11.314;2022-08-21T14:51:36;27.00;52.00
20319;DHT22;10317;47.254;11.314;2022-08-21T14:54:04;27.10;48.50
20319;DHT22;10317;47.254;11.314;2022-08-21T14:56:31;27.40;49.70
20319;DHT22;10317;47.254;11.314;2022-08-21T14:59:07;27.20;52.20
20319;DHT22;10317;47.254;11.314;2022-08-21T15:01:36;27.30;53.00
20319;DHT22;10317;47.254;11.314;2022-08-21T15:04:03;27.20;51.50
20319;DHT22;10317;47.254;11.314;2022-08-21T15:06:29;27.20;50.90
20319;DHT22;10317;47.254;11.314;2022-08-21T15:08:54;27.10;50.50
20319;DHT22;10317;47.254;11.314;2022-08-21T15:11:22;27.00;51.00
20319;DHT22;10317;47.254;11.314;2022-08-21T15:13:57;27.10;51.50
20319;DHT22;10317;47.254;11.314;2022-08-21T15:16:23;27.30;49.10
20319;DHT22;10317;47.254;11.314;2022-08-21T15:18:49;27.10;46.90
20319;DHT22;10317;47.254;11.314;2022-08-21T15:21:15;27.00;49.90
20319;DHT22;10317;47.254;11.314;2022-08-21T15:23:41;26.90;50.90
20319;DHT22;10317;47.254;11.314;2022-08-21T15:26:07;26.80;49.50
20319;DHT22;10317;47.254;11.314;2022-08-21T15:28:34;27.00;53.20
20319;DHT22;10317;47.254;11.314;2022-08-21T15:31:00;27.10;51.60
20319;DHT22;10317;47.254;11.314;2022-08-21T15:33:27;27.20;49.60
20319;DHT22;10317;47.254;11.314;2022-08-21T15:35:52;27.10;56.00
20319;DHT22;10317;47.254;11.314;2022-08-21T15:38:18;26.90;56.10
20319;DHT22;10317;47.254;11.314;2022-08-21T15:40:44;26.80;55.60
20319;DHT22;10317;47.254;11.314;2022-08-21T15:43:25;26.80;53.60
20319;DHT22;10317;47.254;11.314;2022-08-21T15:45:51;26.60;53.10
20319;DHT22;10317;47.254;11.314;2022-08-21T15:52:20;26.50;56.10
20319;DHT22;10317;47.254;11.314;2022-08-21T15:54:46;26.50;53.60
20319;DHT22;10317;47.254;11.314;2022-08-21T15:57:15;26.50;56.10
20319;DHT22;10317;47.254;11.314;2022-08-21T15:59:44;26.40;55.30
20319;DHT22;10317;47.254;11.314;2022-08-21T16:02:14;26.50;55.20
20319;DHT22;10317;47.254;11.314;2022-08-21T16:04:41;26.50;57.40
20319;DHT22;10317;47.254;11.314;2022-08-21T16:07:07;26.30;57.30
20319;DHT22;10317;47.254;11.314;2022-08-21T16:09:32;26.10;58.70
20319;DHT22;10317;47.254;11.314;2022-08-21T16:12:00;26.10;61.60
20319;DHT22;10317;47.254;11.314;2022-08-21T16:14:26;25.90;62.90
20319;DHT22;10317;47.254;11.314;2022-08-21T16:16:53;25.90;58.10
20319;DHT22;10317;47.254;11.314;2022-08-21T16:19:19;25.80;59.70
20319;DHT22;10317;47.254;11.314;2022-08-21T16:21:46;25.80;60.30
20319;DHT22;10317;47.254;11.314;2022-08-21T16:24:12;25.80;61.50
20319;DHT22;10317;47.254;11.314;2022-08-21T16:26:37;25.80;61.30
20319;DHT22;10317;47.254;11.314;2022-08-21T16:29:04;25.60;62.00
20319;DHT22;10317;47.254;11.314;2022-08-21T16:31:31;25.50;63.00
20319;DHT22;10317;47.254;11.314;2022-08-21T16:33:57;25.30;68.40
20319;DHT22;10317;47.254;11.314;2022-08-21T16:36:24;25.10;61.80
20319;DHT22;10317;47.254;11.314;2022-08-21T16:42:20;24.50;62.50
20319;DHT22;10317;47.254;11.314;2022-08-21T16:44:47;24.20;69.00
20319;DHT22;10317;47.254;11.314;2022-08-21T16:47:12;23.90;71.10
20319;DHT22;10317;47.254;11.314;2022-08-21T16:49:38;23.70;70.70
20319;DHT22;10317;47.254;11.314;2022-08-21T16:52:04;23.50;70.50
20319;DHT22;10317;47.254;11.314;2022-08-21T16:54:31;23.30;70.90
20319;DHT22;10317;47.254;11.314;2022-08-21T16:56:57;23.20;71.20